sensor_id;sensor_type;location;lat;lon;timestamp;P1;durP1;ratioP1;P2;durP2;ratioP2
70667;SDS011;58242;51.250;-1.118;2023-06-24T00:01:23;2.88;;;2.45;;
70667;SDS011;58242;51.250;-1.118;2023-06-24T00:03:48;2.75;;;2.28;;
70667;SDS011;58242;51.250;-1.118;2023-06-24T00:08:49;2.60;;;2.45;;
70667;SDS011;58242;51.250;-1.118;2023-06-24T00:11:14;2.40;;;2.30;;
70667;SDS011;58242;51.250;-1.118;2023-06-24T00:13:41;2.67;;;2.42;;
70667;SDS011;58242;51.250;-1.118;2023-06-24T00:16:07;3.10;;;2.78;;
70667;SDS011;58242;51.250;-1.118;2023-06-24T00:18:33;3.10;;;2.80;;
70667;SDS011;58242;51.250;-1.118;2023-06-24T00:20:59;2.92;;;2.70;;
70667;SDS011;58242;51.250;-1.118;2023-06-24T00:23:26;3.35;;;3.08;;
70667;SDS011;58242;51.250;-1.118;2023-06-24T00:25:53;3.13;;;2.83;;
70667;SDS011;58242;51.250;-1.118;2023-06-24T00:28:19;4.93;;;2.97;;
70667;SDS011;58242;51.250;-1.118;2023-06-24T00:30:44;3.40;;;3.15;;
70667;SDS011;58242;51.250;-1.118;2023-06-24T00:33:10;4.90;;;3.53;;
70667;SDS011;58242;51.250;-1.118;2023-06-24T00:35:38;3.33;;;3.03;;
70667;SDS011;58242;51.250;-1.118;2023-06-24T00:38:03;3.13;;;2.92;;
70667;SDS011;58242;51.250;-1.118;2023-06-24T00:40:29;2.38;;;2.28;;
70667;SDS011;58242;51.250;-1.118;2023-06-24T00:42:54;3.10;;;2.85;;
70667;SDS011;58242;51.250;-1.118;2023-06-24T00:45:21;3.50;;;3.20;;
70667;SDS011;58242;51.250;-1.118;2023-06-24T00:47:47;4.07;;;3.70;;
70667;SDS011;58242;51.250;-1.118;2023-06-24T00:50:13;3.63;;;3.33;;
70667;SDS011;58242;51.250;-1.118;2023-06-24T00:52:40;3.58;;;3.28;;
70667;SDS011;58242;51.250;-1.118;2023-06-24T00:55:07;4.18;;;3.38;;
70667;SDS011;58242;51.250;-1.118;2023-06-24T00:57:40;4.15;;;3.83;;
70667;SDS011;58242;51.250;-1.118;2023-06-24T01:00:07;4.78;;;4.03;;
70667;SDS011;58242;51.250;-1.118;2023-06-24T01:02:40;4.20;;;3.83;;
70667;SDS011;58242;51.250;-1.118;2023-06-24T01:05:07;3.72;;;3.33;;
70667;SDS011;58242;51.250;-1.118;2023-06-24T01:07:34;3.92;;;3.63;;
70667;SDS011;58242;51.250;-1.118;2023-06-24T01:10:02;3.63;;;3.33;;
70667;SDS011;58242;51.250;-1.118;2023-06-24T01:12:33;3.95;;;3.53;;
70667;SDS011;58242;51.250;-1.118;2023-06-24T01:15:06;3.85;;;3.55;;
70667;SDS011;58242;51.250;-1.118;2023-06-24T01:17:43;3.45;;;3.25;;
70667;SDS011;58242;51.250;-1.118;2023-06-24T01:20:23;3.42;;;3.22;;
70667;SDS011;58242;51.250;-1.118;2023-06-24T01:25:59;3.92;;;3.63;;
70667;SDS011;58242;51.250;-1.118;2023-06-24T01:36:34;4.13;;;3.80;;
70667;SDS011;58242;51.250;-1.118;2023-06-24T01:39:04;4.75;;;4.13;;
70667;SDS011;58242;51.250;-1.118;2023-06-24T01:41:34;3.30;;;3.10;;
70667;SDS011;58242;51.250;-1.118;2023-06-24T01:44:14;4.07;;;3.78;;
70667;SDS011;58242;51.250;-1.118;2023-06-24T01:46:41;3.83;;;3.50;;
70667;SDS011;58242;51.250;-1.118;2023-06-24T01:49:11;4.40;;;3.83;;
70667;SDS011;58242;51.250;-1.118;2023-06-24T01:51:39;4.70;;;4.30;;
70667;SDS011;58242;51.250;-1.118;2023-06-24T01:54:07;5.03;;;3.80;;
70667;SDS011;58242;51.250;-1.118;2023-06-24T01:56:38;3.90;;;3.60;;
70667;SDS011;58242;51.250;-1.118;2023-06-24T01:59:04;3.90;;;3.60;;
70667;SDS011;58242;51.250;-1.118;2023-06-24T02:01:35;5.45;;;4.75;;
70667;SDS011;58242;51.250;-1.118;2023-06-24T02:04:02;4.25;;;3.85;;
70667;SDS011;58242;51.250;-1.118;2023-06-24T02:06:29;5.38;;;4.70;;
70667;SDS011;58242;51.250;-1.118;2023-06-24T02:08:56;4.68;;;4.35;;
70667;SDS011;58242;51.250;-1.118;2023-06-24T02:11:23;5.45;;;4.70;;
70667;SDS011;58242;51.250;-1.118;2023-06-24T02:13:50;4.30;;;3.90;;
70667;SDS011;58242;51.250;-1.118;2023-06-24T02:16:16;4.22;;;3.92;;
70667;SDS011;58242;51.250;-1.118;2023-06-24T02:18:43;4.20;;;3.40;;
70667;SDS011;58242;51.250;-1.118;2023-06-24T02:21:09;4.50;;;4.15;;
70667;SDS011;58242;51.250;-1.118;2023-06-24T02:23:39;4.97;;;4.47;;
70667;SDS011;58242;51.250;-1.118;2023-06-24T02:26:04;4.20;;;3.83;;
70667;SDS011;58242;51.250;-1.118;2023-06-24T02:28:32;5.18;;;4.68;;
70667;SDS011;58242;51.250;-1.118;2023-06-24T02:30:58;4.68;;;4.28;;
70667;SDS011;58242;51.250;-1.118;2023-06-24T02:33:25;6.57;;;5.53;;
70667;SDS011;58242;51.250;-1.118;2023-06-24T02:35:51;4.93;;;4.45;;
70667;SDS011;58242;51.250;-1.118;2023-06-24T02:38:17;6.32;;;5.75;;
70667;SDS011;58242;51.250;-1.118;2023-06-24T02:40:43;5.63;;;5.13;;
70667;SDS011;58242;51.250;-1.118;2023-06-24T02:43:10;5.20;;;4.75;;
70667;SDS011;58242;51.250;-1.118;2023-06-24T02:45:36;4.78;;;4.38;;
70667;SDS011;58242;51.250;-1.118;2023-06-24T02:48:02;5.32;;;4.82;;
70667;SDS011;58242;51.250;-1.118;2023-06-24T02:50:29;5.38;;;4.88;;
70667;SDS011;58242;51.250;-1.118;2023-06-24T02:52:55;5.28;;;4.88;;
70667;SDS011;58242;51.250;-1.118;2023-06-24T02:55:22;4.95;;;4.55;;
70667;SDS011;58242;51.250;-1.118;2023-06-24T02:57:47;5.53;;;5.03;;
70667;SDS011;58242;51.250;-1.118;2023-06-24T03:00:13;5.13;;;4.65;;
70667;SDS011;58242;51.250;-1.118;2023-06-24T03:02:40;4.72;;;4.25;;
70667;SDS011;58242;51.250;-1.118;2023-06-24T03:05:07;4.68;;;4.38;;
70667;SDS011;58242;51.250;-1.118;2023-06-24T03:07:34;5.45;;;4.80;;
70667;SDS011;58242;51.250;-1.118;2023-06-24T03:10:02;5.47;;;4.97;;
70667;SDS011;58242;51.250;-1.118;2023-06-24T03:12:28;6.18;;;5.60;;
70667;SDS011;58242;51.250;-1.118;2023-06-24T03:14:53;4.53;;;4.13;;
70667;SDS011;58242;51.250;-1.118;2023-06-24T03:17:19;5.90;;;4.82;;
70667;SDS011;58242;51.250;-1.118;2023-06-24T03:19:45;4.35;;;4.05;;
70667;SDS011;58242;51.250;-1.118;2023-06-24T03:22:11;4.50;;;4.20;;
70667;SDS011;58242;51.250;-1.118;2023-06-24T03:24:36;4.80;;;4.40;;
70667;SDS011;58242;51.250;-1.118;2023-06-24T03:27:01;4.35;;;3.97;;
70667;SDS011;58242;51.250;-1.118;2023-06-24T03:29:27;4.68;;;4.25;;
70667;SDS011;58242;51.250;-1.118;2023-06-24T03:31:53;3.58;;;3.28;;
70667;SDS011;58242;51.250;-1.118;2023-06-24T03:34:18;5.45;;;4.45;;
70667;SDS011;58242;51.250;-1.118;2023-06-24T03:36:44;4.32;;;4.00;;
70667;SDS011;58242;51.250;-1.118;2023-06-24T03:39:09;4.88;;;4.10;;
70667;SDS011;58242;51.250;-1.118;2023-06-24T03:41:34;4.93;;;4.35;;
70667;SDS011;58242;51.250;-1.118;2023-06-24T03:44:00;5.75;;;5.25;;
70667;SDS011;58242;51.250;-1.118;2023-06-24T03:46:25;4.97;;;4.35;;
70667;SDS011;58242;51.250;-1.118;2023-06-24T03:48:51;4.45;;;3.95;;
70667;SDS011;58242;51.250;-1.118;2023-06-24T03:51:16;3.95;;;3.65;;
70667;SDS011;58242;51.250;-1.118;2023-06-24T03:53:42;4.55;;;4.15;;
70667;SDS011;58242;51.250;-1.118;2023-06-24T03:56:07;6.22;;;4.68;;
70667;SDS011;58242;51.250;-1.118;2023-06-24T03:58:32;4.47;;;4.15;;
70667;SDS011;58242;51.250;-1.118;2023-06-24T04:00:59;4.88;;;4.47;;
70667;SDS011;58242;51.250;-1.118;2023-06-24T04:03:25;4.20;;;3.90;;
70667;SDS011;58242;51.250;-1.118;2023-06-24T04:05:52;4.57;;;4.18;;
70667;SDS011;58242;51.250;-1.118;2023-06-24T04:08:18;5.50;;;4.85;;
70667;SDS011;58242;51.250;-1.118;2023-06-24T04:10:43;4.30;;;4.00;;
70667;SDS011;58242;51.250;-1.118;2023-06-24T04:13:09;5.90;;;4.50;;
70667;SDS011;58242;51.250;-1.118;2023-06-24T04:15:34;4.13;;;3.80;;
70667;SDS011;58242;51.250;-1.118;2023-06-24T04:18:00;4.32;;;3.58;;
70667;SDS011;58242;51.250;-1.118;2023-06-24T04:20:25;4.85;;;4.45;;
70667;SDS011;58242;51.250;-1.118;2023-06-24T04:22:50;4.55;;;4.03;;
70667;SDS011;58242;51.250;-1.118;2023-06-24T04:25:15;3.97;;;3.67;;
70667;SDS011;58242;51.250;-1.118;2023-06-24T04:27:41;6.28;;;5.60;;
70667;SDS011;58242;51.250;-1.118;2023-06-24T04:30:06;4.15;;;3.88;;
70667;SDS011;58242;51.250;-1.118;2023-06-24T04:32:32;4.32;;;4.03;;
70667;SDS011;58242;51.250;-1.118;2023-06-24T04:34:58;5.38;;;4.75;;
70667;SDS011;58242;51.250;-1.118;2023-06-24T04:37:25;4.53;;;4.13;;
70667;SDS011;58242;51.250;-1.118;2023-06-24T04:39:51;4.55;;;4.13;;
70667;SDS011;58242;51.250;-1.118;2023-06-24T04:42:16;3.55;;;3.25;;
70667;SDS011;58242;51.250;-1.118;2023-06-24T04:44:41;4.28;;;3.88;;
70667;SDS011;58242;51.250;-1.118;2023-06-24T04:47:07;5.03;;;4.50;;
70667;SDS011;58242;51.250;-1.118;2023-06-24T04:49:32;5.55;;;4.60;;
70667;SDS011;58242;51.250;-1.118;2023-06-24T04:52:00;4.13;;;3.72;;
70667;SDS011;58242;51.250;-1.118;2023-06-24T04:54:26;5.35;;;4.35;;
70667;SDS011;58242;51.250;-1.118;2023-06-24T04:56:52;4.28;;;3.88;;
70667;SDS011;58242;51.250;-1.118;2023-06-24T04:59:20;4.00;;;3.70;;
70667;SDS011;58242;51.250;-1.118;2023-06-24T05:01:45;3.47;;;3.17;;
70667;SDS011;58242;51.250;-1.118;2023-06-24T05:04:11;3.78;;;3.47;;
70667;SDS011;58242;51.250;-1.118;2023-06-24T05:06:36;2.88;;;2.70;;
70667;SDS011;58242;51.250;-1.118;2023-06-24T05:09:01;3.55;;;3.25;;
70667;SDS011;58242;51.250;-1.118;2023-06-24T05:11:26;2.85;;;2.55;;
70667;SDS011;58242;51.250;-1.118;2023-06-24T05:13:52;3.30;;;3.10;;
70667;SDS011;58242;51.250;-1.118;2023-06-24T05:16:17;3.88;;;3.47;;
70667;SDS011;58242;51.250;-1.118;2023-06-24T05:18:43;3.80;;;3.60;;
70667;SDS011;58242;51.250;-1.118;2023-06-24T05:21:10;4.40;;;4.00;;
70667;SDS011;58242;51.250;-1.118;2023-06-24T05:23:35;4.68;;;4.05;;
70667;SDS011;58242;51.250;-1.118;2023-06-24T05:26:01;4.53;;;3.83;;
70667;SDS011;58242;51.250;-1.118;2023-06-24T05:28:26;3.67;;;3.38;;
70667;SDS011;58242;51.250;-1.118;2023-06-24T05:30:51;5.07;;;4.60;;
70667;SDS011;58242;51.250;-1.118;2023-06-24T05:33:17;3.90;;;3.60;;
70667;SDS011;58242;51.250;-1.118;2023-06-24T05:35:43;3.40;;;3.20;;
70667;SDS011;58242;51.250;-1.118;2023-06-24T05:38:08;3.72;;;3.30;;
70667;SDS011;58242;51.250;-1.118;2023-06-24T05:40:33;3.33;;;3.03;;
70667;SDS011;58242;51.250;-1.118;2023-06-24T05:42:59;3.83;;;3.53;;
70667;SDS011;58242;51.250;-1.118;2023-06-24T05:45:25;4.65;;;4.25;;
70667;SDS011;58242;51.250;-1.118;2023-06-24T05:47:51;3.63;;;3.33;;
70667;SDS011;58242;51.250;-1.118;2023-06-24T05:50:16;3.28;;;3.00;;
70667;SDS011;58242;51.250;-1.118;2023-06-24T05:52:41;2.85;;;2.60;;
70667;SDS011;58242;51.250;-1.118;2023-06-24T05:55:07;3.22;;;3.03;;
70667;SDS011;58242;51.250;-1.118;2023-06-24T05:57:32;3.70;;;3.40;;
70667;SDS011;58242;51.250;-1.118;2023-06-24T05:59:58;3.45;;;3.20;;
70667;SDS011;58242;51.250;-1.118;2023-06-24T06:02:23;4.55;;;3.58;;
70667;SDS011;58242;51.250;-1.118;2023-06-24T06:04:49;3.08;;;2.88;;
70667;SDS011;58242;51.250;-1.118;2023-06-24T06:07:15;3.05;;;2.80;;
70667;SDS011;58242;51.250;-1.118;2023-06-24T06:09:40;3.00;;;2.80;;
70667;SDS011;58242;51.250;-1.118;2023-06-24T06:12:06;3.55;;;3.25;;
70667;SDS011;58242;51.250;-1.118;2023-06-24T06:14:32;3.20;;;3.00;;
70667;SDS011;58242;51.250;-1.118;2023-06-24T06:16:57;4.20;;;3.90;;
70667;SDS011;58242;51.250;-1.118;2023-06-24T06:19:22;3.28;;;2.95;;
70667;SDS011;58242;51.250;-1.118;2023-06-24T06:21:49;3.92;;;3.33;;
70667;SDS011;58242;51.250;-1.118;2023-06-24T06:24:14;3.55;;;3.28;;
70667;SDS011;58242;51.250;-1.118;2023-06-24T06:26:41;3.05;;;2.80;;
70667;SDS011;58242;51.250;-1.118;2023-06-24T06:29:08;3.88;;;3.58;;
70667;SDS011;58242;51.250;-1.118;2023-06-24T06:31:33;3.53;;;3.28;;
70667;SDS011;58242;51.250;-1.118;2023-06-24T06:33:58;3.53;;;3.20;;
70667;SDS011;58242;51.250;-1.118;2023-06-24T06:36:24;3.83;;;3.47;;
70667;SDS011;58242;51.250;-1.118;2023-06-24T06:38:49;4.18;;;3.40;;
70667;SDS011;58242;51.250;-1.118;2023-06-24T06:41:14;2.90;;;2.70;;
70667;SDS011;58242;51.250;-1.118;2023-06-24T06:43:40;3.65;;;3.35;;
70667;SDS011;58242;51.250;-1.118;2023-06-24T06:46:06;3.50;;;3.17;;
70667;SDS011;58242;51.250;-1.118;2023-06-24T06:48:31;4.95;;;4.28;;
70667;SDS011;58242;51.250;-1.118;2023-06-24T06:50:56;4.38;;;3.70;;
70667;SDS011;58242;51.250;-1.118;2023-06-24T06:53:22;3.42;;;3.22;;
70667;SDS011;58242;51.250;-1.118;2023-06-24T06:55:47;3.35;;;3.05;;
70667;SDS011;58242;51.250;-1.118;2023-06-24T06:58:12;2.97;;;2.75;;
70667;SDS011;58242;51.250;-1.118;2023-06-24T07:00:38;3.00;;;2.80;;
70667;SDS011;58242;51.250;-1.118;2023-06-24T07:03:03;2.63;;;2.42;;
70667;SDS011;58242;51.250;-1.118;2023-06-24T07:05:28;3.30;;;3.03;;
70667;SDS011;58242;51.250;-1.118;2023-06-24T07:07:53;3.60;;;3.28;;
70667;SDS011;58242;51.250;-1.118;2023-06-24T07:10:19;3.22;;;2.92;;
70667;SDS011;58242;51.250;-1.118;2023-06-24T07:12:45;2.75;;;2.55;;
70667;SDS011;58242;51.250;-1.118;2023-06-24T07:15:10;3.40;;;3.20;;
70667;SDS011;58242;51.250;-1.118;2023-06-24T07:17:36;2.80;;;2.60;;
70667;SDS011;58242;51.250;-1.118;2023-06-24T07:20:01;2.53;;;2.42;;
70667;SDS011;58242;51.250;-1.118;2023-06-24T07:22:27;3.08;;;2.88;;
70667;SDS011;58242;51.250;-1.118;2023-06-24T07:24:52;2.90;;;2.70;;
70667;SDS011;58242;51.250;-1.118;2023-06-24T07:27:18;2.95;;;2.72;;
70667;SDS011;58242;51.250;-1.118;2023-06-24T07:29:43;2.90;;;2.70;;
70667;SDS011;58242;51.250;-1.118;2023-06-24T07:32:08;2.40;;;2.30;;
70667;SDS011;58242;51.250;-1.118;2023-06-24T07:34:34;3.25;;;3.05;;
70667;SDS011;58242;51.250;-1.118;2023-06-24T07:36:59;2.75;;;2.55;;
70667;SDS011;58242;51.250;-1.118;2023-06-24T07:39:25;3.85;;;3.63;;
70667;SDS011;58242;51.250;-1.118;2023-06-24T07:41:50;2.88;;;2.67;;
70667;SDS011;58242;51.250;-1.118;2023-06-24T07:44:15;2.47;;;2.30;;
70667;SDS011;58242;51.250;-1.118;2023-06-24T07:46:41;3.25;;;3.05;;
70667;SDS011;58242;51.250;-1.118;2023-06-24T07:49:06;2.80;;;2.65;;
70667;SDS011;58242;51.250;-1.118;2023-06-24T07:51:31;3.38;;;3.17;;
70667;SDS011;58242;51.250;-1.118;2023-06-24T07:53:57;3.15;;;2.97;;
70667;SDS011;58242;51.250;-1.118;2023-06-24T07:56:22;3.03;;;2.83;;
70667;SDS011;58242;51.250;-1.118;2023-06-24T07:58:47;3.08;;;2.88;;
70667;SDS011;58242;51.250;-1.118;2023-06-24T08:01:12;3.00;;;2.80;;
70667;SDS011;58242;51.250;-1.118;2023-06-24T08:03:38;2.72;;;2.53;;
70667;SDS011;58242;51.250;-1.118;2023-06-24T08:06:03;2.85;;;2.65;;
70667;SDS011;58242;51.250;-1.118;2023-06-24T08:08:29;3.05;;;2.80;;
70667;SDS011;58242;51.250;-1.118;2023-06-24T08:10:54;3.28;;;2.88;;
70667;SDS011;58242;51.250;-1.118;2023-06-24T08:13:19;2.60;;;2.50;;
70667;SDS011;58242;51.250;-1.118;2023-06-24T08:15:45;2.53;;;2.33;;
70667;SDS011;58242;51.250;-1.118;2023-06-24T08:18:10;3.15;;;2.40;;
70667;SDS011;58242;51.250;-1.118;2023-06-24T08:20:36;3.10;;;2.90;;
70667;SDS011;58242;51.250;-1.118;2023-06-24T08:23:01;3.00;;;2.65;;
70667;SDS011;58242;51.250;-1.118;2023-06-24T08:25:27;2.92;;;2.83;;
70667;SDS011;58242;51.250;-1.118;2023-06-24T08:27:52;2.60;;;2.40;;
70667;SDS011;58242;51.250;-1.118;2023-06-24T08:30:17;2.90;;;2.13;;
70667;SDS011;58242;51.250;-1.118;2023-06-24T08:32:43;2.28;;;2.10;;
70667;SDS011;58242;51.250;-1.118;2023-06-24T08:35:08;2.25;;;2.15;;
70667;SDS011;58242;51.250;-1.118;2023-06-24T08:37:35;2.72;;;2.53;;
70667;SDS011;58242;51.250;-1.118;2023-06-24T08:40:01;2.05;;;1.95;;
70667;SDS011;58242;51.250;-1.118;2023-06-24T08:42:26;2.00;;;1.90;;
70667;SDS011;58242;51.250;-1.118;2023-06-24T08:44:52;2.30;;;2.20;;
70667;SDS011;58242;51.250;-1.118;2023-06-24T08:47:17;2.08;;;1.98;;
70667;SDS011;58242;51.250;-1.118;2023-06-24T08:49:52;2.25;;;2.15;;
70667;SDS011;58242;51.250;-1.118;2023-06-24T08:52:21;2.00;;;1.90;;
70667;SDS011;58242;51.250;-1.118;2023-06-24T08:54:50;2.25;;;2.15;;
70667;SDS011;58242;51.250;-1.118;2023-06-24T08:57:16;2.72;;;2.53;;
70667;SDS011;58242;51.250;-1.118;2023-06-24T08:59:42;2.20;;;2.10;;
70667;SDS011;58242;51.250;-1.118;2023-06-24T09:02:07;1.98;;;1.88;;
70667;SDS011;58242;51.250;-1.118;2023-06-24T09:04:33;2.10;;;2.00;;
70667;SDS011;58242;51.250;-1.118;2023-06-24T09:07:00;1.83;;;1.73;;
70667;SDS011;58242;51.250;-1.118;2023-06-24T09:09:25;1.90;;;1.80;;
70667;SDS011;58242;51.250;-1.118;2023-06-24T09:14:21;2.28;;;2.08;;
70667;SDS011;58242;51.250;-1.118;2023-06-24T09:17:05;1.90;;;1.80;;
70667;SDS011;58242;51.250;-1.118;2023-06-24T09:19:30;1.58;;;1.48;;
70667;SDS011;58242;51.250;-1.118;2023-06-24T09:22:04;1.73;;;1.63;;
70667;SDS011;58242;51.250;-1.118;2023-06-24T09:24:34;1.65;;;1.50;;
70667;SDS011;58242;51.250;-1.118;2023-06-24T09:27:01;2.17;;;1.98;;
70667;SDS011;58242;51.250;-1.118;2023-06-24T09:29:33;1.80;;;1.70;;
70667;SDS011;58242;51.250;-1.118;2023-06-24T09:32:03;1.40;;;1.30;;
70667;SDS011;58242;51.250;-1.118;2023-06-24T09:34:29;1.70;;;1.63;;
70667;SDS011;58242;51.250;-1.118;2023-06-24T09:36:55;1.35;;;1.35;;
70667;SDS011;58242;51.250;-1.118;2023-06-24T09:39:21;1.40;;;1.30;;
70667;SDS011;58242;51.250;-1.118;2023-06-24T09:41:53;1.70;;;1.60;;
70667;SDS011;58242;51.250;-1.118;2023-06-24T09:44:19;1.58;;;1.48;;
70667;SDS011;58242;51.250;-1.118;2023-06-24T09:46:44;1.85;;;1.63;;
70667;SDS011;58242;51.250;-1.118;2023-06-24T09:49:10;1.75;;;1.65;;
70667;SDS011;58242;51.250;-1.118;2023-06-24T09:51:39;1.65;;;1.55;;
70667;SDS011;58242;51.250;-1.118;2023-06-24T09:54:08;1.77;;;1.67;;
70667;SDS011;58242;51.250;-1.118;2023-06-24T09:56:36;1.23;;;1.23;;
70667;SDS011;58242;51.250;-1.118;2023-06-24T09:59:06;1.05;;;1.05;;
70667;SDS011;58242;51.250;-1.118;2023-06-24T10:01:32;1.30;;;1.30;;
70667;SDS011;58242;51.250;-1.118;2023-06-24T10:04:00;1.40;;;1.30;;
70667;SDS011;58242;51.250;-1.118;2023-06-24T10:06:26;1.80;;;1.70;;
70667;SDS011;58242;51.250;-1.118;2023-06-24T10:08:52;1.40;;;1.40;;
70667;SDS011;58242;51.250;-1.118;2023-06-24T10:11:18;1.52;;;1.50;;
70667;SDS011;58242;51.250;-1.118;2023-06-24T10:13:43;1.48;;;1.38;;
70667;SDS011;58242;51.250;-1.118;2023-06-24T10:16:09;1.40;;;1.30;;
70667;SDS011;58242;51.250;-1.118;2023-06-24T10:18:35;1.33;;;1.30;;
70667;SDS011;58242;51.250;-1.118;2023-06-24T10:21:01;1.38;;;1.38;;
70667;SDS011;58242;51.250;-1.118;2023-06-24T10:23:31;1.38;;;1.38;;
70667;SDS011;58242;51.250;-1.118;2023-06-24T10:25:58;1.55;;;1.45;;
70667;SDS011;58242;51.250;-1.118;2023-06-24T10:28:23;1.35;;;1.35;;
70667;SDS011;58242;51.250;-1.118;2023-06-24T10:30:55;1.20;;;1.20;;
70667;SDS011;58242;51.250;-1.118;2023-06-24T10:33:21;1.35;;;1.35;;
70667;SDS011;58242;51.250;-1.118;2023-06-24T10:35:48;1.45;;;1.35;;
70667;SDS011;58242;51.250;-1.118;2023-06-24T10:38:13;1.52;;;1.42;;
70667;SDS011;58242;51.250;-1.118;2023-06-24T10:40:39;1.40;;;1.30;;
70667;SDS011;58242;51.250;-1.118;2023-06-24T10:45:52;1.42;;;1.33;;
70667;SDS011;58242;51.250;-1.118;2023-06-24T10:48:18;1.33;;;1.30;;
70667;SDS011;58242;51.250;-1.118;2023-06-24T10:50:47;1.15;;;1.13;;
70667;SDS011;58242;51.250;-1.118;2023-06-24T10:53:14;1.20;;;1.20;;
70667;SDS011;58242;51.250;-1.118;2023-06-24T10:55:40;1.20;;;1.20;;
70667;SDS011;58242;51.250;-1.118;2023-06-24T10:58:08;1.40;;;1.30;;
70667;SDS011;58242;51.250;-1.118;2023-06-24T11:00:38;1.60;;;1.50;;
70667;SDS011;58242;51.250;-1.118;2023-06-24T11:03:22;1.40;;;1.30;;
70667;SDS011;58242;51.250;-1.118;2023-06-24T11:05:48;1.15;;;1.15;;
70667;SDS011;58242;51.250;-1.118;2023-06-24T11:08:14;1.10;;;1.10;;
70667;SDS011;58242;51.250;-1.118;2023-06-24T11:10:46;1.10;;;1.10;;
70667;SDS011;58242;51.250;-1.118;2023-06-24T11:13:12;1.48;;;1.42;;
70667;SDS011;58242;51.250;-1.118;2023-06-24T11:15:38;1.40;;;1.40;;
70667;SDS011;58242;51.250;-1.118;2023-06-24T11:18:07;1.55;;;1.45;;
70667;SDS011;58242;51.250;-1.118;2023-06-24T11:20:33;1.23;;;1.23;;
70667;SDS011;58242;51.250;-1.118;2023-06-24T11:22:58;1.58;;;1.48;;
70667;SDS011;58242;51.250;-1.118;2023-06-24T11:25:23;1.40;;;1.30;;
70667;SDS011;58242;51.250;-1.118;2023-06-24T11:27:52;1.05;;;1.05;;
70667;SDS011;58242;51.250;-1.118;2023-06-24T11:30:20;1.48;;;1.38;;
70667;SDS011;58242;51.250;-1.118;2023-06-24T11:32:46;1.67;;;1.58;;
70667;SDS011;58242;51.250;-1.118;2023-06-24T11:35:13;1.42;;;1.33;;
70667;SDS011;58242;51.250;-1.118;2023-06-24T11:37:45;1.25;;;1.25;;
70667;SDS011;58242;51.250;-1.118;2023-06-24T11:40:12;1.08;;;1.05;;
70667;SDS011;58242;51.250;-1.118;2023-06-24T11:42:39;1.60;;;1.13;;
70667;SDS011;58242;51.250;-1.118;2023-06-24T11:45:06;1.02;;;1.02;;
70667;SDS011;58242;51.250;-1.118;2023-06-24T11:47:34;2.58;;;1.63;;
70667;SDS011;58242;51.250;-1.118;2023-06-24T11:50:00;1.40;;;1.30;;
70667;SDS011;58242;51.250;-1.118;2023-06-24T11:55:00;1.52;;;1.45;;
70667;SDS011;58242;51.250;-1.118;2023-06-24T12:00:24;1.50;;;1.40;;
70667;SDS011;58242;51.250;-1.118;2023-06-24T12:02:52;1.17;;;1.17;;
70667;SDS011;58242;51.250;-1.118;2023-06-24T12:05:28;1.13;;;1.13;;
70667;SDS011;58242;51.250;-1.118;2023-06-24T12:07:59;1.65;;;1.55;;
70667;SDS011;58242;51.250;-1.118;2023-06-24T12:10:26;1.17;;;1.17;;
70667;SDS011;58242;51.250;-1.118;2023-06-24T12:12:52;1.30;;;1.27;;
70667;SDS011;58242;51.250;-1.118;2023-06-24T12:15:18;1.30;;;1.20;;
70667;SDS011;58242;51.250;-1.118;2023-06-24T12:17:43;1.38;;;1.27;;
70667;SDS011;58242;51.250;-1.118;2023-06-24T12:20:09;1.60;;;1.50;;
70667;SDS011;58242;51.250;-1.118;2023-06-24T12:22:35;1.00;;;1.00;;
70667;SDS011;58242;51.250;-1.118;2023-06-24T12:25:01;1.20;;;1.20;;
70667;SDS011;58242;51.250;-1.118;2023-06-24T12:27:27;1.08;;;1.00;;
70667;SDS011;58242;51.250;-1.118;2023-06-24T12:29:53;1.10;;;1.10;;
70667;SDS011;58242;51.250;-1.118;2023-06-24T12:32:19;1.05;;;1.05;;
70667;SDS011;58242;51.250;-1.118;2023-06-24T12:34:44;1.08;;;1.08;;
70667;SDS011;58242;51.250;-1.118;2023-06-24T12:37:09;1.40;;;1.30;;
70667;SDS011;58242;51.250;-1.118;2023-06-24T12:39:35;1.02;;;1.02;;
70667;SDS011;58242;51.250;-1.118;2023-06-24T12:42:00;0.90;;;0.90;;
70667;SDS011;58242;51.250;-1.118;2023-06-24T12:44:25;1.27;;;1.17;;
70667;SDS011;58242;51.250;-1.118;2023-06-24T12:46:52;1.30;;;1.20;;
70667;SDS011;58242;51.250;-1.118;2023-06-24T12:49:18;1.25;;;1.20;;
70667;SDS011;58242;51.250;-1.118;2023-06-24T12:51:43;1.30;;;1.20;;
70667;SDS011;58242;51.250;-1.118;2023-06-24T12:54:08;1.10;;;1.10;;
70667;SDS011;58242;51.250;-1.118;2023-06-24T12:56:34;1.20;;;1.20;;
70667;SDS011;58242;51.250;-1.118;2023-06-24T12:58:59;1.20;;;1.20;;
70667;SDS011;58242;51.250;-1.118;2023-06-24T13:01:25;1.60;;;1.50;;
70667;SDS011;58242;51.250;-1.118;2023-06-24T13:03:50;1.17;;;1.17;;
70667;SDS011;58242;51.250;-1.118;2023-06-24T13:06:16;1.40;;;1.40;;
70667;SDS011;58242;51.250;-1.118;2023-06-24T13:08:42;1.70;;;1.60;;
70667;SDS011;58242;51.250;-1.118;2023-06-24T13:11:08;1.60;;;1.50;;
70667;SDS011;58242;51.250;-1.118;2023-06-24T13:13:34;1.63;;;1.60;;
70667;SDS011;58242;51.250;-1.118;2023-06-24T13:15:59;1.77;;;1.67;;
70667;SDS011;58242;51.250;-1.118;2023-06-24T13:18:25;1.67;;;1.38;;
70667;SDS011;58242;51.250;-1.118;2023-06-24T13:20:50;1.77;;;1.67;;
70667;SDS011;58242;51.250;-1.118;2023-06-24T13:23:16;1.60;;;1.50;;
70667;SDS011;58242;51.250;-1.118;2023-06-24T13:25:41;1.60;;;1.50;;
70667;SDS011;58242;51.250;-1.118;2023-06-24T13:28:07;1.50;;;1.50;;
70667;SDS011;58242;51.250;-1.118;2023-06-24T13:30:32;1.63;;;1.55;;
70667;SDS011;58242;51.250;-1.118;2023-06-24T13:32:58;1.80;;;1.70;;
70667;SDS011;58242;51.250;-1.118;2023-06-24T13:35:23;1.52;;;1.42;;
70667;SDS011;58242;51.250;-1.118;2023-06-24T13:37:48;1.30;;;1.30;;
70667;SDS011;58242;51.250;-1.118;2023-06-24T13:40:14;1.30;;;1.30;;
70667;SDS011;58242;51.250;-1.118;2023-06-24T13:42:40;1.30;;;1.30;;
70667;SDS011;58242;51.250;-1.118;2023-06-24T13:45:06;1.65;;;1.65;;
70667;SDS011;58242;51.250;-1.118;2023-06-24T13:47:31;1.38;;;1.38;;
70667;SDS011;58242;51.250;-1.118;2023-06-24T13:49:57;1.50;;;1.40;;
70667;SDS011;58242;51.250;-1.118;2023-06-24T13:52:24;1.48;;;1.48;;
70667;SDS011;58242;51.250;-1.118;2023-06-24T13:54:51;1.90;;;1.80;;
70667;SDS011;58242;51.250;-1.118;2023-06-24T13:57:16;1.77;;;1.67;;
70667;SDS011;58242;51.250;-1.118;2023-06-24T13:59:42;1.33;;;1.33;;
70667;SDS011;58242;51.250;-1.118;2023-06-24T14:02:08;1.50;;;1.50;;
70667;SDS011;58242;51.250;-1.118;2023-06-24T14:04:34;2.22;;;2.13;;
70667;SDS011;58242;51.250;-1.118;2023-06-24T14:07:00;1.95;;;1.85;;
70667;SDS011;58242;51.250;-1.118;2023-06-24T14:09:27;1.58;;;1.58;;
70667;SDS011;58242;51.250;-1.118;2023-06-24T14:11:53;1.70;;;1.70;;
70667;SDS011;58242;51.250;-1.118;2023-06-24T14:14:20;1.98;;;1.85;;
70667;SDS011;58242;51.250;-1.118;2023-06-24T14:16:46;1.58;;;1.58;;
70667;SDS011;58242;51.250;-1.118;2023-06-24T14:19:12;1.50;;;1.42;;
70667;SDS011;58242;51.250;-1.118;2023-06-24T14:21:38;1.60;;;1.60;;
70667;SDS011;58242;51.250;-1.118;2023-06-24T14:24:04;1.75;;;1.65;;
70667;SDS011;58242;51.250;-1.118;2023-06-24T14:26:30;1.77;;;1.70;;
70667;SDS011;58242;51.250;-1.118;2023-06-24T14:28:55;1.40;;;1.40;;
70667;SDS011;58242;51.250;-1.118;2023-06-24T14:31:21;1.40;;;1.40;;
70667;SDS011;58242;51.250;-1.118;2023-06-24T14:33:47;1.48;;;1.48;;
70667;SDS011;58242;51.250;-1.118;2023-06-24T14:36:12;1.70;;;1.60;;
70667;SDS011;58242;51.250;-1.118;2023-06-24T14:38:38;1.50;;;1.50;;
70667;SDS011;58242;51.250;-1.118;2023-06-24T14:41:03;1.70;;;1.60;;
70667;SDS011;58242;51.250;-1.118;2023-06-24T14:43:29;1.58;;;1.48;;
70667;SDS011;58242;51.250;-1.118;2023-06-24T14:45:54;1.83;;;1.73;;
70667;SDS011;58242;51.250;-1.118;2023-06-24T14:48:20;1.33;;;1.33;;
70667;SDS011;58242;51.250;-1.118;2023-06-24T14:50:45;1.58;;;1.58;;
70667;SDS011;58242;51.250;-1.118;2023-06-24T14:53:11;1.58;;;1.50;;